createdAt,value
2023-08-07T00:00:49.527Z,935.33
2023-08-07T00:01:52.605Z,926.08
2023-08-07T00:02:52.470Z,932.65
2023-08-07T00:03:49.519Z,928.75
2023-08-07T00:04:49.427Z,918.65
2023-08-07T00:05:49.406Z,914.08
2023-08-07T00:06:49.402Z,922.69
2023-08-07T00:07:49.431Z,943.25
2023-08-07T00:08:49.391Z,933.33
2023-08-07T00:09:49.364Z,925.47
2023-08-07T00:10:49.348Z,943.38
2023-08-07T00:11:49.325Z,961.64
2023-08-07T00:12:49.302Z,950.27
2023-08-07T00:13:49.329Z,939.00
2023-08-07T00:14:49.272Z,928.94
2023-08-07T00:15:49.279Z,942.86
2023-08-07T00:16:49.271Z,953.66
2023-08-07T00:17:49.320Z,952.02
2023-08-07T00:18:49.225Z,937.15
2023-08-07T00:19:49.202Z,944.70
2023-08-07T00:20:49.217Z,959.86
2023-08-07T00:21:52.301Z,953.43
2023-08-07T00:22:52.158Z,940.55
2023-08-07T00:23:49.156Z,933.71
2023-08-07T00:24:49.154Z,941.31
2023-08-07T00:25:49.115Z,955.76
2023-08-07T00:26:49.112Z,951.50
2023-08-07T00:27:49.134Z,969.86
2023-08-07T00:28:49.093Z,966.51
2023-08-07T00:29:49.093Z,966.44
2023-08-07T00:30:49.057Z,988.87
2023-08-07T00:31:49.073Z,974.62
2023-08-07T00:32:49.057Z,958.98
2023-08-07T00:33:49.014Z,978.28
2023-08-07T00:34:49.018Z,974.34
2023-08-07T00:35:49.048Z,976.22
2023-08-07T00:36:48.979Z,966.35
2023-08-07T00:37:48.966Z,949.33
2023-08-07T00:38:48.992Z,956.06
2023-08-07T00:39:48.951Z,945.71
2023-08-07T00:40:48.921Z,960.19
2023-08-07T00:41:51.951Z,974.35
2023-08-07T00:42:51.935Z,963.97
2023-08-07T00:43:48.894Z,948.04
2023-08-07T00:44:48.866Z,944.20
2023-08-07T00:45:48.870Z,944.20
2023-08-07T00:46:48.881Z,942.17
2023-08-07T00:47:48.989Z,937.40
2023-08-07T00:48:48.810Z,936.83
2023-08-07T00:49:48.816Z,938.53
2023-08-07T00:50:48.800Z,962.09
2023-08-07T00:51:48.813Z,965.87
2023-08-07T00:52:48.793Z,962.52
2023-08-07T00:53:48.759Z,963.97
2023-08-07T00:54:48.758Z,951.67
2023-08-07T00:55:48.724Z,985.88
2023-08-07T00:56:48.744Z,987.94
2023-08-07T00:57:48.700Z,970.20
2023-08-07T00:58:48.701Z,966.24
2023-08-07T00:59:48.670Z,950.21
2023-08-07T01:00:48.716Z,960.08
2023-08-07T01:01:51.651Z,953.60
2023-08-07T01:02:51.744Z,954.78
2023-08-07T01:03:48.640Z,945.27
2023-08-07T01:04:48.601Z,949.85
2023-08-07T01:05:48.581Z,953.67
2023-08-07T01:06:48.577Z,959.92
2023-08-07T01:07:48.585Z,970.72
2023-08-07T01:08:48.586Z,963.51
2023-08-07T01:09:48.564Z,956.38
2023-08-07T01:10:48.516Z,958.32
2023-08-07T01:11:48.516Z,960.59
2023-08-07T01:12:48.487Z,957.90
2023-08-07T01:13:48.486Z,954.00
2023-08-07T01:14:48.504Z,949.55
2023-08-07T01:15:48.456Z,947.85
2023-08-07T01:16:48.470Z,936.33
2023-08-07T01:17:48.462Z,948.24
2023-08-07T01:18:48.426Z,949.31
2023-08-07T01:19:48.436Z,954.93
2023-08-07T01:20:48.402Z,952.85
2023-08-07T01:21:51.386Z,969.02
2023-08-07T01:22:51.386Z,994.95
2023-08-07T01:23:48.396Z,993.92
2023-08-07T01:24:48.335Z,974.56
2023-08-07T01:25:48.333Z,962.68
2023-08-07T01:26:48.323Z,961.87
2023-08-07T01:27:48.315Z,959.70
2023-08-07T01:28:48.340Z,966.51
2023-08-07T01:29:48.287Z,965.74
2023-08-07T01:30:48.267Z,981.56
2023-08-07T01:31:48.252Z,975.89
2023-08-07T01:32:48.321Z,974.15
2023-08-07T01:33:48.215Z,968.57
2023-08-07T01:34:48.236Z,968.57
2023-08-07T01:35:48.192Z,961.39
2023-08-07T01:36:48.197Z,965.11
2023-08-07T01:37:48.169Z,978.25
2023-08-07T01:38:48.148Z,983.85
2023-08-07T01:39:48.178Z,972.20
2023-08-07T01:40:48.182Z,968.58
2023-08-07T01:41:51.189Z,970.41
2023-08-07T01:42:51.181Z,976.76
2023-08-07T01:43:48.116Z,972.08
2023-08-07T01:44:48.130Z,975.29
2023-08-07T01:45:48.093Z,970.56
2023-08-07T01:46:48.049Z,971.79
2023-08-07T01:47:48.141Z,973.75
2023-08-07T01:48:48.023Z,972.96
2023-08-07T01:49:48.043Z,979.46
2023-08-07T01:50:48.029Z,992.90
2023-08-07T01:51:48.014Z,991.62
2023-08-07T01:52:47.970Z,996.01
2023-08-07T01:53:47.974Z,989.36
2023-08-07T01:54:47.951Z,1006.18
2023-08-07T01:55:47.938Z,1022.59
2023-08-07T01:56:47.947Z,1040.45
2023-08-07T01:57:47.909Z,1045.81
2023-08-07T01:58:47.917Z,1043.18
2023-08-07T01:59:47.882Z,1043.19
2023-08-07T02:00:47.875Z,1044.53
2023-08-07T02:01:50.920Z,1031.75
2023-08-07T02:02:50.941Z,1023.28
2023-08-07T02:03:47.944Z,1033.31
2023-08-07T02:04:47.835Z,1025.40
2023-08-07T02:05:47.862Z,1014.69
2023-08-07T02:06:47.846Z,1001.26
2023-08-07T02:07:47.769Z,990.42
2023-08-07T02:08:47.765Z,1012.60
2023-08-07T02:09:47.779Z,1022.68
2023-08-07T02:10:47.737Z,1016.82
2023-08-07T02:11:47.749Z,1012.18
2023-08-07T02:12:47.724Z,1021.15
2023-08-07T02:13:47.714Z,1023.32
2023-08-07T02:14:47.744Z,1013.82
2023-08-07T02:15:47.674Z,1003.46
2023-08-07T02:16:47.713Z,996.54
2023-08-07T02:17:47.709Z,1014.11
2023-08-07T02:18:47.636Z,1022.29
2023-08-07T02:19:47.644Z,1027.39
2023-08-07T02:20:47.613Z,1042.28
2023-08-07T02:21:50.660Z,1042.51
2023-08-07T02:22:50.597Z,1037.11
2023-08-07T02:23:47.576Z,1031.73
2023-08-07T02:24:47.592Z,1036.44
2023-08-07T02:25:47.580Z,1025.12
2023-08-07T02:26:47.519Z,1021.84
2023-08-07T02:27:47.560Z,1007.99
2023-08-07T02:28:47.527Z,999.71
2023-08-07T02:29:47.516Z,992.47
2023-08-07T02:30:47.473Z,988.97
2023-08-07T02:31:47.497Z,982.34
2023-08-07T02:32:47.526Z,975.89
2023-08-07T02:33:47.467Z,966.72
2023-08-07T02:34:47.452Z,959.01
2023-08-07T02:35:47.411Z,960.48
2023-08-07T02:36:47.418Z,958.61
2023-08-07T02:37:47.392Z,964.73
2023-08-07T02:38:47.391Z,958.24
2023-08-07T02:39:47.378Z,953.45
2023-08-07T02:40:47.347Z,953.31
2023-08-07T02:41:50.342Z,960.02
2023-08-07T02:42:50.328Z,977.08
2023-08-07T02:43:47.335Z,988.10
2023-08-07T02:44:47.335Z,993.53
2023-08-07T02:45:47.331Z,984.86
2023-08-07T02:46:47.252Z,1016.17
2023-08-07T02:47:47.307Z,1054.63
2023-08-07T02:48:47.254Z,1080.18
2023-08-07T02:49:47.295Z,1076.57
2023-08-07T02:50:47.283Z,1052.50
2023-08-07T02:51:47.211Z,1058.34
2023-08-07T02:52:47.211Z,1061.00
2023-08-07T02:53:47.173Z,1050.82
2023-08-07T02:54:47.182Z,1040.41
2023-08-07T02:55:47.134Z,1032.06
2023-08-07T02:56:47.135Z,1038.90
2023-08-07T02:57:47.148Z,1040.31
2023-08-07T02:58:47.130Z,1040.84
2023-08-07T02:59:47.112Z,1054.93
2023-08-07T03:00:47.093Z,1052.09
2023-08-07T03:01:50.189Z,1047.40
2023-08-07T03:02:50.136Z,1066.32
2023-08-07T03:03:47.032Z,1064.59
2023-08-07T03:04:47.075Z,1078.28
2023-08-07T03:05:47.030Z,1081.39
2023-08-07T03:06:46.990Z,1079.26
2023-08-07T03:07:46.988Z,1072.42
2023-08-07T03:08:46.965Z,1074.85
2023-08-07T03:09:46.990Z,1064.25
2023-08-07T03:10:46.950Z,1050.94
2023-08-07T03:11:46.925Z,1036.91
2023-08-07T03:12:46.922Z,1028.68
2023-08-07T03:13:46.940Z,1019.05
2023-08-07T03:14:46.926Z,1029.26
2023-08-07T03:15:46.935Z,1020.93
2023-08-07T03:16:46.866Z,1017.78
2023-08-07T03:17:46.865Z,1026.99
2023-08-07T03:18:46.836Z,1022.98
2023-08-07T03:19:46.847Z,1007.08
2023-08-07T03:20:46.815Z,998.04
2023-08-07T03:21:49.826Z,990.04
2023-08-07T03:22:49.775Z,988.63
2023-08-07T03:23:46.757Z,988.83
2023-08-07T03:24:46.783Z,979.47
2023-08-07T03:25:46.742Z,976.18
2023-08-07T03:26:46.717Z,971.17
2023-08-07T03:27:46.714Z,975.87
2023-08-07T03:28:46.691Z,968.70
2023-08-07T03:29:46.702Z,966.36
2023-08-07T03:30:46.668Z,976.46
2023-08-07T03:31:46.721Z,979.89
2023-08-07T03:32:46.660Z,979.78
2023-08-07T03:33:46.641Z,989.59
2023-08-07T03:34:46.612Z,980.83
2023-08-07T03:35:46.615Z,980.24
2023-08-07T03:36:46.592Z,982.36
2023-08-07T03:37:46.634Z,981.62
2023-08-07T03:38:46.558Z,989.08
2023-08-07T03:39:46.553Z,989.52
2023-08-07T03:40:46.554Z,983.33
2023-08-07T03:41:49.510Z,980.62
2023-08-07T03:42:49.683Z,985.22
2023-08-07T03:43:46.517Z,988.23
2023-08-07T03:44:46.475Z,988.77
2023-08-07T03:45:46.558Z,987.44
2023-08-07T03:46:46.450Z,984.15
2023-08-07T03:47:46.441Z,987.56
2023-08-07T03:48:46.426Z,990.75
2023-08-07T03:49:46.427Z,991.40
2023-08-07T03:50:46.390Z,988.55
2023-08-07T03:51:46.398Z,995.96
2023-08-07T03:52:46.376Z,997.33
2023-08-07T03:53:46.378Z,994.68
2023-08-07T03:54:46.340Z,993.45
2023-08-07T03:55:46.333Z,999.18
2023-08-07T03:56:46.369Z,995.29
2023-08-07T03:57:46.290Z,999.46
2023-08-07T03:58:46.275Z,1001.54
2023-08-07T03:59:46.263Z,1001.78
2023-08-07T04:00:46.277Z,1000.03
2023-08-07T04:01:49.252Z,1008.84
2023-08-07T04:02:49.262Z,1011.28
2023-08-07T04:03:46.253Z,1013.14
2023-08-07T04:04:46.189Z,1007.77
2023-08-07T04:05:46.174Z,1011.97
2023-08-07T04:06:46.249Z,1007.47
2023-08-07T04:07:46.144Z,1025.24
2023-08-07T04:08:46.129Z,1019.82
2023-08-07T04:09:46.159Z,1012.82
2023-08-07T04:10:46.097Z,1002.86
2023-08-07T04:11:46.094Z,1004.31
2023-08-07T04:12:46.110Z,996.89
2023-08-07T04:13:46.080Z,997.92
2023-08-07T04:14:46.071Z,996.67
2023-08-07T04:15:46.121Z,992.54
2023-08-07T04:16:46.096Z,997.16
2023-08-07T04:17:46.026Z,989.76
2023-08-07T04:18:46.032Z,988.21
2023-08-07T04:19:45.995Z,991.66
2023-08-07T04:20:45.970Z,987.24
2023-08-07T04:21:48.982Z,983.23
2023-08-07T04:22:48.971Z,989.95
2023-08-07T04:23:45.945Z,983.68
2023-08-07T04:24:45.916Z,981.48
2023-08-07T04:25:45.920Z,987.10
2023-08-07T04:26:45.947Z,981.93
2023-08-07T04:27:45.911Z,995.87
2023-08-07T04:28:45.867Z,985.12
2023-08-07T04:29:45.869Z,982.61
2023-08-07T04:30:46.023Z,987.42
2023-08-07T04:31:45.828Z,991.01
2023-08-07T04:32:45.856Z,984.79
2023-08-07T04:33:45.807Z,975.10
2023-08-07T04:34:45.787Z,976.10
2023-08-07T04:35:45.795Z,967.77
2023-08-07T04:36:45.781Z,961.77
2023-08-07T04:37:45.739Z,954.75
2023-08-07T04:38:45.728Z,965.10
2023-08-07T04:39:45.750Z,957.97
2023-08-07T04:40:45.705Z,954.01
2023-08-07T04:41:48.694Z,954.62
2023-08-07T04:42:48.693Z,950.50
2023-08-07T04:43:45.707Z,952.03
2023-08-07T04:44:45.672Z,950.54
2023-08-07T04:45:45.642Z,948.75
2023-08-07T04:46:45.687Z,941.04
2023-08-07T04:47:45.640Z,950.41
2023-08-07T04:48:45.630Z,938.62
2023-08-07T04:49:45.582Z,953.29
2023-08-07T04:50:45.594Z,948.77
2023-08-07T04:51:45.583Z,943.10
2023-08-07T04:52:45.570Z,944.56
2023-08-07T04:53:45.550Z,951.69
2023-08-07T04:54:45.536Z,947.41
2023-08-07T04:55:45.524Z,947.69
2023-08-07T04:56:45.628Z,945.08
2023-08-07T04:57:45.537Z,933.39
2023-08-07T04:58:45.498Z,944.10
2023-08-07T04:59:45.449Z,928.09
2023-08-07T05:00:45.520Z,928.09
2023-08-07T05:01:48.427Z,912.98
2023-08-07T05:02:48.558Z,920.36
2023-08-07T05:03:45.546Z,912.02
2023-08-07T05:04:45.403Z,908.26
2023-08-07T05:05:45.375Z,903.15
2023-08-07T05:06:45.377Z,894.55
2023-08-07T05:07:45.365Z,874.28
2023-08-07T05:08:45.413Z,881.51
2023-08-07T05:09:45.352Z,865.93
2023-08-07T05:10:45.353Z,868.51
2023-08-07T05:11:45.309Z,870.40
2023-08-07T05:12:45.289Z,874.88
2023-08-07T05:13:45.305Z,863.03
2023-08-07T05:14:45.296Z,868.72
2023-08-07T05:15:45.244Z,913.66
2023-08-07T05:16:45.299Z,957.92
2023-08-07T05:17:45.324Z,959.45
2023-08-07T05:18:45.228Z,947.65
2023-08-07T05:19:45.258Z,937.93
2023-08-07T05:20:45.184Z,953.80
2023-08-07T05:21:48.181Z,969.86
2023-08-07T05:22:48.263Z,986.12
2023-08-07T05:23:45.134Z,979.13
2023-08-07T05:24:45.137Z,964.26
2023-08-07T05:25:45.958Z,974.28
2023-08-07T05:26:45.187Z,973.67
2023-08-07T05:27:45.172Z,969.06
2023-08-07T05:28:45.091Z,965.84
2023-08-07T05:29:45.323Z,964.89
2023-08-07T05:30:45.142Z,989.73
2023-08-07T05:31:45.080Z,975.72
2023-08-07T05:32:45.059Z,970.57
2023-08-07T05:33:45.019Z,982.38
2023-08-07T05:34:45.009Z,975.75
2023-08-07T05:35:44.983Z,975.79
2023-08-07T05:36:45.047Z,974.52
2023-08-07T05:37:44.962Z,961.29
2023-08-07T05:38:44.955Z,958.68
2023-08-07T05:39:44.924Z,946.62
2023-08-07T05:40:44.944Z,935.99
2023-08-07T05:41:47.962Z,917.50
2023-08-07T05:42:47.884Z,904.77
2023-08-07T05:43:44.877Z,881.59
2023-08-07T05:44:44.959Z,885.21
2023-08-07T05:45:44.852Z,831.47
2023-08-07T05:46:44.933Z,787.35
2023-08-07T05:47:44.839Z,763.42
2023-08-07T05:48:44.834Z,772.24
2023-08-07T05:49:44.826Z,753.36
2023-08-07T05:50:44.768Z,801.21
2023-08-07T05:51:44.812Z,827.68
2023-08-07T05:52:44.785Z,841.56
2023-08-07T05:53:44.745Z,847.87
2023-08-07T05:54:44.744Z,857.97
2023-08-07T05:55:44.741Z,896.78
2023-08-07T05:56:44.689Z,950.91
2023-08-07T05:57:44.729Z,920.45
2023-08-07T05:58:44.696Z,896.57
2023-08-07T05:59:44.668Z,878.33
2023-08-07T06:00:44.690Z,837.77
2023-08-07T06:01:47.688Z,799.95
2023-08-07T06:02:47.692Z,803.73
2023-08-07T06:03:44.645Z,789.87
2023-08-07T06:04:44.598Z,739.52
2023-08-07T06:05:44.568Z,721.92
2023-08-07T06:06:44.560Z,726.94
2023-08-07T06:07:44.560Z,679.21
2023-08-07T06:08:44.589Z,639.08
2023-08-07T06:09:44.513Z,635.32
2023-08-07T06:10:44.498Z,640.34
2023-08-07T06:11:44.479Z,632.82
2023-08-07T06:12:44.464Z,674.20
2023-08-07T06:13:44.461Z,615.28
2023-08-07T06:14:44.492Z,567.06
2023-08-07T06:15:44.465Z,541.44
2023-08-07T06:16:44.503Z,526.91
2023-08-07T06:17:44.431Z,520.45
2023-08-07T06:18:44.393Z,536.26
2023-08-07T06:19:44.402Z,543.03
2023-08-07T06:20:44.365Z,525.12
2023-08-07T06:21:47.342Z,527.18
2023-08-07T06:22:47.400Z,563.97
2023-08-07T06:23:44.393Z,556.72
2023-08-07T06:24:44.324Z,546.17
2023-08-07T06:25:44.300Z,550.64
2023-08-07T06:26:44.284Z,563.96
2023-08-07T06:27:44.269Z,556.84
2023-08-07T06:28:44.270Z,624.05
2023-08-07T06:29:44.276Z,652.87
2023-08-07T06:30:44.270Z,672.94
2023-08-07T06:31:44.230Z,685.49
2023-08-07T06:32:44.245Z,708.09
2023-08-07T06:33:44.212Z,701.81
2023-08-07T06:34:44.208Z,709.35
2023-08-07T06:35:44.159Z,733.23
2023-08-07T06:36:44.172Z,776.01
2023-08-07T06:37:44.140Z,832.73
2023-08-07T06:38:44.116Z,806.25
2023-08-07T06:39:44.153Z,804.99
2023-08-07T06:40:44.216Z,812.56
2023-08-07T06:41:47.070Z,869.46
2023-08-07T06:42:47.059Z,911.13
2023-08-07T06:43:44.080Z,923.87
2023-08-07T06:44:44.077Z,934.92
2023-08-07T06:45:44.065Z,914.33
2023-08-07T06:46:44.007Z,914.79
2023-08-07T06:47:44.137Z,946.32
2023-08-07T06:48:44.048Z,935.93
2023-08-07T06:49:43.964Z,932.98
2023-08-07T06:50:43.987Z,924.95
2023-08-07T06:51:43.947Z,962.14
2023-08-07T06:52:43.948Z,959.28
2023-08-07T06:53:43.911Z,944.88
2023-08-07T06:54:43.919Z,964.48
2023-08-07T06:55:43.905Z,961.78
2023-08-07T06:56:43.862Z,979.21
2023-08-07T06:57:43.887Z,1017.34
2023-08-07T06:58:43.881Z,1021.00
2023-08-07T06:59:43.908Z,1020.42
2023-08-07T07:00:43.806Z,1022.05
2023-08-07T07:01:46.859Z,1014.04
2023-08-07T07:02:46.798Z,1014.15
2023-08-07T07:03:43.870Z,1018.78
2023-08-07T07:04:43.776Z,1008.16
2023-08-07T07:05:43.803Z,1009.96
2023-08-07T07:06:43.713Z,1015.91
2023-08-07T07:07:43.727Z,1011.51
2023-08-07T07:08:43.717Z,1012.19
2023-08-07T07:09:43.697Z,1002.63
2023-08-07T07:10:43.725Z,1006.42
2023-08-07T07:11:43.659Z,991.71
2023-08-07T07:12:43.659Z,971.49
2023-08-07T07:13:43.624Z,927.13
2023-08-07T07:14:43.603Z,905.22
2023-08-07T07:15:43.626Z,922.37
2023-08-07T07:16:43.582Z,923.85
2023-08-07T07:17:43.624Z,938.60
2023-08-07T07:18:43.599Z,944.41
2023-08-07T07:19:43.544Z,945.04
2023-08-07T07:20:43.519Z,955.26
2023-08-07T07:21:46.557Z,981.63
2023-08-07T07:22:46.505Z,1005.44
2023-08-07T07:23:43.475Z,1007.76
2023-08-07T07:24:43.507Z,1009.15
2023-08-07T07:25:43.446Z,1029.45
2023-08-07T07:26:43.446Z,1034.15
2023-08-07T07:27:43.455Z,1046.91
2023-08-07T07:28:43.410Z,1037.97
2023-08-07T07:29:43.388Z,1010.42
2023-08-07T07:30:43.401Z,964.73
2023-08-07T07:31:43.406Z,970.06
2023-08-07T07:32:43.433Z,953.05
2023-08-07T07:33:43.344Z,975.72
2023-08-07T07:34:43.332Z,982.63
2023-08-07T07:35:43.303Z,971.71
2023-08-07T07:36:43.322Z,958.36
2023-08-07T07:37:43.267Z,972.00
2023-08-07T07:38:45.594Z,988.27
2023-08-07T07:39:43.282Z,998.23
2023-08-07T07:40:43.244Z,1014.23
2023-08-07T07:41:46.279Z,1026.54
2023-08-07T07:42:46.231Z,1049.53
2023-08-07T07:43:44.094Z,1058.99
2023-08-07T07:44:43.231Z,1045.53
2023-08-07T07:45:43.248Z,1052.00
2023-08-07T07:46:43.148Z,1058.24
2023-08-07T07:47:43.141Z,1045.06
2023-08-07T07:48:43.139Z,1054.64
2023-08-07T07:49:43.105Z,1055.49
2023-08-07T07:50:43.124Z,1054.66
2023-08-07T07:51:43.068Z,1043.32
2023-08-07T07:52:43.057Z,1056.31
2023-08-07T07:53:43.052Z,1050.68
2023-08-07T07:54:43.080Z,1028.79
2023-08-07T07:55:43.013Z,1033.76
2023-08-07T07:56:43.008Z,1029.21
2023-08-07T07:57:42.994Z,1011.75
2023-08-07T07:58:42.997Z,988.21
2023-08-07T07:59:42.980Z,989.21
2023-08-07T08:00:42.973Z,990.06
2023-08-07T08:01:45.930Z,970.59
2023-08-07T08:02:45.941Z,991.86
2023-08-07T08:03:42.917Z,997.81
2023-08-07T08:04:42.941Z,1011.90
2023-08-07T08:05:42.869Z,1004.51
2023-08-07T08:06:42.866Z,1012.84
2023-08-07T08:07:42.858Z,1022.26
2023-08-07T08:08:42.866Z,1019.21
2023-08-07T08:09:42.855Z,1031.36
2023-08-07T08:10:42.943Z,1046.01
2023-08-07T08:11:42.805Z,1047.28
2023-08-07T08:12:42.776Z,1047.74
2023-08-07T08:13:42.771Z,1034.39
2023-08-07T08:14:55.397Z,1028.51
2023-08-07T08:15:43.757Z,1021.60
2023-08-07T08:16:42.746Z,1020.10
2023-08-07T08:17:42.840Z,1012.45
2023-08-07T08:18:42.708Z,1027.25
2023-08-07T08:19:50.606Z,1032.63
2023-08-07T08:20:43.706Z,1050.08
2023-08-07T08:21:45.688Z,1058.68
2023-08-07T08:22:45.650Z,1061.35
2023-08-07T08:23:42.663Z,1045.92
2023-08-07T08:24:42.641Z,1030.00
2023-08-07T08:25:42.636Z,1029.57
2023-08-07T08:26:42.613Z,1020.66
2023-08-07T08:27:42.569Z,1043.29
2023-08-07T08:28:42.556Z,1040.41
2023-08-07T08:29:42.559Z,1023.20
2023-08-07T08:30:42.596Z,1039.79
2023-08-07T08:31:42.684Z,1041.87
2023-08-07T08:32:42.526Z,1045.15
2023-08-07T08:33:42.525Z,1035.92
2023-08-07T08:34:42.498Z,1026.56
2023-08-07T08:35:42.517Z,1040.31
2023-08-07T08:36:42.515Z,1038.92
2023-08-07T08:37:42.454Z,1047.56
2023-08-07T08:38:42.427Z,1036.67
2023-08-07T08:39:42.436Z,1022.38
2023-08-07T08:40:42.522Z,1032.88
2023-08-07T08:41:45.447Z,1025.99
2023-08-07T08:42:45.433Z,1004.74
2023-08-07T08:43:42.373Z,974.98
2023-08-07T08:44:42.358Z,998.44
2023-08-07T08:45:42.330Z,1009.03
2023-08-07T08:46:42.380Z,1028.20
2023-08-07T08:47:42.360Z,1013.95
2023-08-07T08:48:42.298Z,1019.62
2023-08-07T08:49:42.279Z,995.12
2023-08-07T08:50:42.281Z,976.01
2023-08-07T08:51:42.320Z,976.84
2023-08-07T08:52:42.283Z,975.64
2023-08-07T08:53:42.268Z,979.69
2023-08-07T08:54:42.240Z,989.92
2023-08-07T08:55:42.216Z,988.83
2023-08-07T08:56:42.182Z,979.59
2023-08-07T08:57:42.261Z,995.77
2023-08-07T08:58:42.221Z,1003.94
2023-08-07T08:59:42.192Z,1006.99
2023-08-07T09:00:42.182Z,1025.16
2023-08-07T09:01:45.114Z,998.88
2023-08-07T09:02:45.135Z,989.21
2023-08-07T09:03:42.144Z,1008.16
2023-08-07T09:04:42.095Z,1007.68
2023-08-07T09:05:42.073Z,1017.13
2023-08-07T09:06:44.410Z,994.37
2023-08-07T09:07:42.054Z,992.59
2023-08-07T09:08:42.040Z,990.44
2023-08-07T09:09:42.035Z,980.76
2023-08-07T09:10:42.013Z,992.54
2023-08-07T09:11:41.991Z,1015.55
2023-08-07T09:12:41.985Z,1006.42
2023-08-07T09:13:41.992Z,980.80
2023-08-07T09:14:41.943Z,975.21
2023-08-07T09:15:41.934Z,966.04
2023-08-07T09:16:41.975Z,924.28
2023-08-07T09:17:41.937Z,903.15
2023-08-07T09:18:41.907Z,926.65
2023-08-07T09:19:41.928Z,950.66
2023-08-07T09:20:41.865Z,945.11
2023-08-07T09:21:44.850Z,943.15
2023-08-07T09:22:44.835Z,902.71
2023-08-07T09:23:41.834Z,876.75
2023-08-07T09:24:41.823Z,856.89
2023-08-07T09:25:41.843Z,890.31
2023-08-07T09:26:41.769Z,902.25
2023-08-07T09:27:41.771Z,869.75
2023-08-07T09:28:41.746Z,860.77
2023-08-07T09:29:41.769Z,816.34
2023-08-07T09:30:41.769Z,865.54
2023-08-07T09:31:41.732Z,875.03
2023-08-07T09:32:41.720Z,922.16
2023-08-07T09:33:41.698Z,936.70
2023-08-07T09:34:41.715Z,933.41
2023-08-07T09:35:41.656Z,937.02
2023-08-07T09:36:41.668Z,943.93
2023-08-07T09:37:41.627Z,935.62
2023-08-07T09:38:41.620Z,950.33
2023-08-07T09:39:41.594Z,964.79
2023-08-07T09:40:41.579Z,967.96
2023-08-07T09:41:44.600Z,998.25
2023-08-07T09:42:44.574Z,1012.93
2023-08-07T09:43:41.528Z,1014.78
2023-08-07T09:44:41.527Z,1008.76
2023-08-07T09:45:41.546Z,993.91
2023-08-07T09:46:41.546Z,955.10
2023-08-07T09:47:41.524Z,942.97
2023-08-07T09:48:41.497Z,923.13
2023-08-07T09:49:41.500Z,914.99
2023-08-07T09:50:41.463Z,890.92
2023-08-07T09:51:41.417Z,923.91
2023-08-07T09:52:41.410Z,927.36
2023-08-07T09:53:41.387Z,896.55
2023-08-07T09:54:41.373Z,886.27
2023-08-07T09:55:41.414Z,850.41
2023-08-07T09:56:41.345Z,804.99
2023-08-07T09:57:41.375Z,779.79
2023-08-07T09:58:41.317Z,784.83
2023-08-07T09:59:41.325Z,763.42
2023-08-07T10:00:41.301Z,772.24
2023-08-07T10:01:44.315Z,769.72
2023-08-07T10:02:44.574Z,801.21
2023-08-07T10:03:41.313Z,807.51
2023-08-07T10:04:41.250Z,827.69
2023-08-07T10:05:41.217Z,856.29
2023-08-07T10:06:41.233Z,851.67
2023-08-07T10:07:41.207Z,862.56
2023-08-07T10:08:41.191Z,860.85
2023-08-07T10:09:41.213Z,846.62
2023-08-07T10:10:41.190Z,858.96
2023-08-07T10:11:41.174Z,830.21
2023-08-07T10:12:41.135Z,806.25
2023-08-07T10:13:41.121Z,774.75
2023-08-07T10:14:41.124Z,763.42
2023-08-07T10:15:41.084Z,752.10
2023-08-07T10:16:41.248Z,769.72
2023-08-07T10:17:41.110Z,768.46
2023-08-07T10:18:41.057Z,782.31
2023-08-07T10:19:41.032Z,764.68
2023-08-07T10:20:41.024Z,754.61
2023-08-07T10:21:44.166Z,794.91
2023-08-07T10:22:43.978Z,830.21
2023-08-07T10:23:41.075Z,879.07
2023-08-07T10:24:40.966Z,849.14
2023-08-07T10:25:40.957Z,865.69
2023-08-07T10:26:40.956Z,877.78
2023-08-07T10:27:40.974Z,846.89
2023-08-07T10:28:40.912Z,815.08
2023-08-07T10:29:40.888Z,813.82
2023-08-07T10:30:40.891Z,869.29
2023-08-07T10:31:40.976Z,887.79
2023-08-07T10:32:40.885Z,839.05
2023-08-07T10:33:40.868Z,828.95
2023-08-07T10:34:40.820Z,817.60
2023-08-07T10:35:40.820Z,832.74
2023-08-07T10:36:40.797Z,817.60
2023-08-07T10:37:40.802Z,770.98
2023-08-07T10:38:40.819Z,764.68
2023-08-07T10:39:40.753Z,729.46
2023-08-07T10:40:40.760Z,720.66
2023-08-07T10:41:43.732Z,730.72
2023-08-07T10:42:43.733Z,759.65
2023-08-07T10:43:40.751Z,763.42
2023-08-07T10:44:40.698Z,831.47
2023-08-07T10:45:40.704Z,820.12
2023-08-07T10:46:40.692Z,828.95
2023-08-07T10:47:40.711Z,854.26
2023-08-07T10:48:40.689Z,867.61
2023-08-07T10:49:40.628Z,868.86
2023-08-07T10:50:40.613Z,863.55
2023-08-07T10:51:40.601Z,863.56
2023-08-07T10:52:40.599Z,895.82
2023-08-07T10:53:40.587Z,924.84
2023-08-07T10:54:40.549Z,931.78
2023-08-07T10:55:40.568Z,958.69
2023-08-07T10:56:40.554Z,970.79
2023-08-07T10:57:40.505Z,984.37
2023-08-07T10:58:40.575Z,1002.56
2023-08-07T10:59:40.556Z,1007.07
2023-08-07T11:00:40.466Z,993.07
2023-08-07T11:01:43.590Z,999.58
2023-08-07T11:02:43.492Z,994.51
2023-08-07T11:03:40.456Z,980.62
2023-08-07T11:04:40.466Z,945.21
2023-08-07T11:05:40.398Z,918.43
2023-08-07T11:06:40.379Z,920.31
2023-08-07T11:07:40.373Z,894.96
2023-08-07T11:08:40.369Z,898.57
2023-08-07T11:09:40.348Z,896.84
2023-08-07T11:10:40.370Z,893.04
2023-08-07T11:11:40.344Z,855.45
2023-08-07T11:12:40.315Z,837.77
2023-08-07T11:13:40.338Z,812.56
2023-08-07T11:14:40.320Z,854.18
2023-08-07T11:15:40.333Z,849.13
2023-08-07T11:16:40.278Z,877.96
2023-08-07T11:17:40.284Z,916.35
2023-08-07T11:18:40.218Z,915.15
2023-08-07T11:19:40.236Z,874.38
2023-08-07T11:20:40.220Z,878.33
2023-08-07T11:21:43.192Z,892.99
2023-08-07T11:22:43.167Z,876.06
2023-08-07T11:23:40.193Z,828.95
2023-08-07T11:24:40.176Z,831.47
2023-08-07T11:25:40.144Z,847.87
2023-08-07T11:26:40.138Z,883.71
2023-08-07T11:27:40.102Z,880.95
2023-08-07T11:28:40.122Z,878.55
2023-08-07T11:29:40.100Z,905.32
2023-08-07T11:30:40.070Z,915.68
2023-08-07T11:31:40.066Z,935.37
2023-08-07T11:32:40.058Z,942.84
2023-08-07T11:33:40.042Z,965.39
2023-08-07T11:34:40.047Z,955.38
2023-08-07T11:35:40.002Z,937.38
2023-08-07T11:36:39.999Z,923.94
2023-08-07T11:37:39.963Z,937.96
2023-08-07T11:38:39.950Z,923.81
2023-08-07T11:39:39.989Z,899.50
2023-08-07T11:40:39.950Z,822.64
2023-08-07T11:41:42.925Z,844.09
2023-08-07T11:42:42.934Z,882.70
2023-08-07T11:43:39.898Z,877.82
2023-08-07T11:44:39.895Z,856.71
2023-08-07T11:45:39.887Z,841.57
2023-08-07T11:46:39.872Z,842.83
2023-08-07T11:47:39.851Z,864.57
2023-08-07T11:48:39.820Z,856.02
2023-08-07T11:49:39.842Z,847.88
2023-08-07T11:50:39.786Z,871.23
2023-08-07T11:51:39.824Z,879.85
2023-08-07T11:52:39.752Z,868.33
2023-08-07T11:53:39.762Z,831.47
2023-08-07T11:54:39.735Z,818.86
2023-08-07T11:55:39.718Z,788.61
2023-08-07T11:56:39.719Z,764.68
2023-08-07T11:57:39.736Z,770.98
2023-08-07T11:58:39.680Z,754.61
2023-08-07T11:59:39.668Z,743.29
2023-08-07T12:00:39.659Z,739.52
2023-08-07T12:01:42.719Z,730.72
2023-08-07T12:02:42.669Z,754.61
2023-08-07T12:03:39.861Z,815.08
2023-08-07T12:04:39.645Z,811.29
2023-08-07T12:05:39.574Z,815.08
2023-08-07T12:06:39.604Z,871.34
2023-08-07T12:07:39.574Z,862.10
2023-08-07T12:08:39.648Z,850.41
2023-08-07T12:09:39.521Z,860.03
2023-08-07T12:10:39.527Z,834.00
2023-08-07T12:11:39.499Z,850.91
2023-08-07T12:12:39.494Z,839.05
2023-08-07T12:13:39.532Z,823.91
2023-08-07T12:14:39.505Z,815.08
2023-08-07T12:15:39.502Z,783.57
2023-08-07T12:16:39.464Z,822.64
2023-08-07T12:17:39.423Z,878.74
2023-08-07T12:18:39.500Z,882.29
2023-08-07T12:19:39.407Z,892.18
2023-08-07T12:20:39.509Z,917.82
2023-08-07T12:21:42.384Z,899.43
2023-08-07T12:22:42.351Z,895.10
2023-08-07T12:23:39.366Z,909.13